Lorain, Ohio
Current Conditions -  °F | °C
As of 3:53 PM on Saturday 25 Oct 2014 (Local Time) from KLPR Reporting Station
Light Rain Light Rain  
Wind Chill: 70°   Ceiling: Unl
Heat Index: 70°   Visibility: 10mi
Dew Point: 51°   Wind: 15mph
Humidity: 51%   Direction: 280°W
Pressure: 29.77"   Gusts: 31mph
Location:  41.47°N, 82.18°W
Report Text: KLPR 251953Z AUTO 28013G27KT 10SM -RA CLR 21/11 A2977 RMK AO2 PK WND 30027/1945 SLP079 P0000 T02110106 TSNO
Loading
Personal Weather Stations






























Interactive Weather Map
Tropical Storm Tracking
New forecast layout! Learn more

10-Day Weather Forecast

Advertisements
Track Severe Weather on mobile